sensor_id;sensor_type;location;lat;lon;timestamp;temperature;humidity
15143;DHT22;7672;50.834;6.286;2023-03-21T00:00:30;12.70;99.90
15143;DHT22;7672;50.834;6.286;2023-03-21T00:02:57;12.70;99.90
15143;DHT22;7672;50.834;6.286;2023-03-21T00:05:24;12.70;99.90
15143;DHT22;7672;50.834;6.286;2023-03-21T00:07:51;12.70;99.90
15143;DHT22;7672;50.834;6.286;2023-03-21T00:10:18;12.70;99.90
15143;DHT22;7672;50.834;6.286;2023-03-21T00:13:02;12.70;99.90
15143;DHT22;7672;50.834;6.286;2023-03-21T00:15:31;12.70;99.90
15143;DHT22;7672;50.834;6.286;2023-03-21T00:18:13;12.70;99.90
15143;DHT22;7672;50.834;6.286;2023-03-21T00:20:41;12.70;99.90
15143;DHT22;7672;50.834;6.286;2023-03-21T00:23:12;12.70;99.90
15143;DHT22;7672;50.834;6.286;2023-03-21T00:25:39;12.70;99.90
15143;DHT22;7672;50.834;6.286;2023-03-21T00:28:06;12.80;99.90
15143;DHT22;7672;50.834;6.286;2023-03-21T00:30:34;12.70;99.90
15143;DHT22;7672;50.834;6.286;2023-03-21T00:33:01;12.80;99.90
15143;DHT22;7672;50.834;6.286;2023-03-21T00:35:45;12.80;99.90
15143;DHT22;7672;50.834;6.286;2023-03-21T00:38:32;12.80;99.90
15143;DHT22;7672;50.834;6.286;2023-03-21T00:41:06;12.80;99.90
15143;DHT22;7672;50.834;6.286;2023-03-21T00:43:51;12.80;99.90
15143;DHT22;7672;50.834;6.286;2023-03-21T00:46:21;12.80;99.90
15143;DHT22;7672;50.834;6.286;2023-03-21T00:48:50;12.80;99.90
15143;DHT22;7672;50.834;6.286;2023-03-21T00:51:20;12.80;99.90
15143;DHT22;7672;50.834;6.286;2023-03-21T00:53:54;12.80;99.90
15143;DHT22;7672;50.834;6.286;2023-03-21T00:56:22;12.80;99.90
15143;DHT22;7672;50.834;6.286;2023-03-21T00:58:49;12.80;99.90
15143;DHT22;7672;50.834;6.286;2023-03-21T01:01:16;12.80;99.90
15143;DHT22;7672;50.834;6.286;2023-03-21T01:03:43;12.80;99.90
15143;DHT22;7672;50.834;6.286;2023-03-21T01:06:17;12.80;99.90
15143;DHT22;7672;50.834;6.286;2023-03-21T01:08:46;13.00;99.90
15143;DHT22;7672;50.834;6.286;2023-03-21T01:11:21;12.80;99.90
15143;DHT22;7672;50.834;6.286;2023-03-21T01:13:51;12.90;99.90
15143;DHT22;7672;50.834;6.286;2023-03-21T01:16:30;12.90;99.90
15143;DHT22;7672;50.834;6.286;2023-03-21T01:18:57;12.90;99.90
15143;DHT22;7672;50.834;6.286;2023-03-21T01:21:25;12.90;99.90
15143;DHT22;7672;50.834;6.286;2023-03-21T01:23:52;12.90;99.90
15143;DHT22;7672;50.834;6.286;2023-03-21T01:26:19;12.90;99.90
15143;DHT22;7672;50.834;6.286;2023-03-21T01:28:46;12.90;99.90
15143;DHT22;7672;50.834;6.286;2023-03-21T01:31:15;12.90;99.90
15143;DHT22;7672;50.834;6.286;2023-03-21T01:33:43;12.90;99.90
15143;DHT22;7672;50.834;6.286;2023-03-21T01:36:15;12.90;99.90
15143;DHT22;7672;50.834;6.286;2023-03-21T01:38:48;12.90;99.90
15143;DHT22;7672;50.834;6.286;2023-03-21T01:41:36;12.90;99.90
15143;DHT22;7672;50.834;6.286;2023-03-21T01:44:15;12.90;99.90
15143;DHT22;7672;50.834;6.286;2023-03-21T01:46:49;12.80;99.90
15143;DHT22;7672;50.834;6.286;2023-03-21T01:49:40;12.90;99.90
15143;DHT22;7672;50.834;6.286;2023-03-21T01:52:17;12.90;99.90
15143;DHT22;7672;50.834;6.286;2023-03-21T01:55:04;12.90;99.90
15143;DHT22;7672;50.834;6.286;2023-03-21T01:57:40;12.90;99.90
15143;DHT22;7672;50.834;6.286;2023-03-21T02:00:30;12.90;99.90
15143;DHT22;7672;50.834;6.286;2023-03-21T02:02:59;12.90;99.90
15143;DHT22;7672;50.834;6.286;2023-03-21T02:06:35;12.90;99.90
15143;DHT22;7672;50.834;6.286;2023-03-21T02:08:51;12.90;99.90
15143;DHT22;7672;50.834;6.286;2023-03-21T02:11:20;12.90;99.90
15143;DHT22;7672;50.834;6.286;2023-03-21T02:13:47;12.90;99.90
15143;DHT22;7672;50.834;6.286;2023-03-21T02:16:51;12.90;99.90
15143;DHT22;7672;50.834;6.286;2023-03-21T02:20:03;12.80;99.90
15143;DHT22;7672;50.834;6.286;2023-03-21T02:28:23;12.80;99.90
15143;DHT22;7672;50.834;6.286;2023-03-21T02:31:17;12.80;99.90
15143;DHT22;7672;50.834;6.286;2023-03-21T02:33:59;12.80;99.90
15143;DHT22;7672;50.834;6.286;2023-03-21T02:45:18;12.70;99.90
15143;DHT22;7672;50.834;6.286;2023-03-21T02:47:54;12.70;99.90
15143;DHT22;7672;50.834;6.286;2023-03-21T02:51:01;12.70;99.90
15143;DHT22;7672;50.834;6.286;2023-03-21T02:53:25;12.70;99.90
15143;DHT22;7672;50.834;6.286;2023-03-21T02:55:58;12.70;99.90
15143;DHT22;7672;50.834;6.286;2023-03-21T02:58:26;12.70;99.90
15143;DHT22;7672;50.834;6.286;2023-03-21T03:00:55;12.70;99.90
15143;DHT22;7672;50.834;6.286;2023-03-21T03:03:23;12.70;99.90
15143;DHT22;7672;50.834;6.286;2023-03-21T03:06:01;12.70;99.90
15143;DHT22;7672;50.834;6.286;2023-03-21T03:11:54;12.70;99.90
15143;DHT22;7672;50.834;6.286;2023-03-21T03:14:37;12.80;99.90
15143;DHT22;7672;50.834;6.286;2023-03-21T03:17:50;12.80;99.90
15143;DHT22;7672;50.834;6.286;2023-03-21T03:20:47;12.80;99.90
15143;DHT22;7672;50.834;6.286;2023-03-21T03:23:27;12.70;99.90
15143;DHT22;7672;50.834;6.286;2023-03-21T03:26:40;12.80;99.90
15143;DHT22;7672;50.834;6.286;2023-03-21T03:29:16;12.80;99.90
15143;DHT22;7672;50.834;6.286;2023-03-21T03:32:10;12.80;99.90
15143;DHT22;7672;50.834;6.286;2023-03-21T03:34:49;12.80;99.90
15143;DHT22;7672;50.834;6.286;2023-03-21T03:37:26;12.80;99.90
15143;DHT22;7672;50.834;6.286;2023-03-21T03:40:10;12.80;99.90
15143;DHT22;7672;50.834;6.286;2023-03-21T03:42:45;12.80;99.90
15143;DHT22;7672;50.834;6.286;2023-03-21T03:45:19;12.90;99.90
15143;DHT22;7672;50.834;6.286;2023-03-21T03:48:12;12.90;99.90
15143;DHT22;7672;50.834;6.286;2023-03-21T03:50:57;12.90;99.90
15143;DHT22;7672;50.834;6.286;2023-03-21T03:53:45;12.90;99.90
15143;DHT22;7672;50.834;6.286;2023-03-21T03:56:19;12.90;99.90
15143;DHT22;7672;50.834;6.286;2023-03-21T03:58:46;12.90;99.90
15143;DHT22;7672;50.834;6.286;2023-03-21T04:01:14;12.90;99.90
15143;DHT22;7672;50.834;6.286;2023-03-21T04:03:44;13.00;99.90
15143;DHT22;7672;50.834;6.286;2023-03-21T04:06:21;13.00;99.90
15143;DHT22;7672;50.834;6.286;2023-03-21T04:08:49;13.00;99.90
15143;DHT22;7672;50.834;6.286;2023-03-21T04:11:16;13.00;99.90
15143;DHT22;7672;50.834;6.286;2023-03-21T04:13:43;13.00;99.90
15143;DHT22;7672;50.834;6.286;2023-03-21T04:16:10;13.00;99.90
15143;DHT22;7672;50.834;6.286;2023-03-21T04:18:38;13.00;99.90
15143;DHT22;7672;50.834;6.286;2023-03-21T04:21:14;13.00;99.90
15143;DHT22;7672;50.834;6.286;2023-03-21T04:23:41;13.00;99.90
15143;DHT22;7672;50.834;6.286;2023-03-21T04:26:08;13.10;99.90
15143;DHT22;7672;50.834;6.286;2023-03-21T04:28:35;13.10;99.90
15143;DHT22;7672;50.834;6.286;2023-03-21T04:31:07;13.10;99.90
15143;DHT22;7672;50.834;6.286;2023-03-21T04:33:51;13.10;99.90
15143;DHT22;7672;50.834;6.286;2023-03-21T04:36:19;13.10;99.90
15143;DHT22;7672;50.834;6.286;2023-03-21T04:39:07;13.10;99.90
15143;DHT22;7672;50.834;6.286;2023-03-21T04:41:40;13.10;99.90
15143;DHT22;7672;50.834;6.286;2023-03-21T04:44:12;13.10;99.90
15143;DHT22;7672;50.834;6.286;2023-03-21T04:46:41;13.10;99.90
15143;DHT22;7672;50.834;6.286;2023-03-21T04:49:09;13.10;99.90
15143;DHT22;7672;50.834;6.286;2023-03-21T04:51:37;13.10;99.90
15143;DHT22;7672;50.834;6.286;2023-03-21T04:54:05;13.00;99.90
15143;DHT22;7672;50.834;6.286;2023-03-21T04:56:32;13.00;99.90
15143;DHT22;7672;50.834;6.286;2023-03-21T04:59:07;13.00;99.90
15143;DHT22;7672;50.834;6.286;2023-03-21T05:01:37;13.00;99.90
15143;DHT22;7672;50.834;6.286;2023-03-21T05:04:07;13.00;99.90
15143;DHT22;7672;50.834;6.286;2023-03-21T05:06:34;13.00;99.90
15143;DHT22;7672;50.834;6.286;2023-03-21T05:09:03;13.00;99.90
15143;DHT22;7672;50.834;6.286;2023-03-21T05:11:35;13.00;99.90
15143;DHT22;7672;50.834;6.286;2023-03-21T05:14:05;13.00;99.90
15143;DHT22;7672;50.834;6.286;2023-03-21T05:16:35;13.00;99.90
15143;DHT22;7672;50.834;6.286;2023-03-21T05:19:04;13.00;99.90
15143;DHT22;7672;50.834;6.286;2023-03-21T05:21:32;12.90;99.90
15143;DHT22;7672;50.834;6.286;2023-03-21T05:24:17;12.90;99.90
15143;DHT22;7672;50.834;6.286;2023-03-21T05:26:47;12.90;99.90
15143;DHT22;7672;50.834;6.286;2023-03-21T05:29:18;12.90;99.90
15143;DHT22;7672;50.834;6.286;2023-03-21T05:31:46;12.90;99.90
15143;DHT22;7672;50.834;6.286;2023-03-21T05:34:14;12.90;99.90
15143;DHT22;7672;50.834;6.286;2023-03-21T05:36:41;12.90;99.90
15143;DHT22;7672;50.834;6.286;2023-03-21T05:39:21;12.90;99.90
15143;DHT22;7672;50.834;6.286;2023-03-21T05:41:49;12.90;99.90
15143;DHT22;7672;50.834;6.286;2023-03-21T05:44:17;12.80;99.90
15143;DHT22;7672;50.834;6.286;2023-03-21T05:46:45;12.90;99.90
15143;DHT22;7672;50.834;6.286;2023-03-21T05:49:19;12.90;99.90
15143;DHT22;7672;50.834;6.286;2023-03-21T05:51:48;12.80;99.90
15143;DHT22;7672;50.834;6.286;2023-03-21T05:54:15;12.80;99.90
15143;DHT22;7672;50.834;6.286;2023-03-21T05:56:43;12.80;99.90
15143;DHT22;7672;50.834;6.286;2023-03-21T05:59:10;12.80;99.90
15143;DHT22;7672;50.834;6.286;2023-03-21T06:01:37;12.80;99.90
15143;DHT22;7672;50.834;6.286;2023-03-21T06:04:05;12.80;99.90
15143;DHT22;7672;50.834;6.286;2023-03-21T06:06:32;12.70;99.90
15143;DHT22;7672;50.834;6.286;2023-03-21T06:09:00;12.80;99.90
15143;DHT22;7672;50.834;6.286;2023-03-21T06:11:31;12.70;99.90
15143;DHT22;7672;50.834;6.286;2023-03-21T06:14:00;12.70;99.90
15143;DHT22;7672;50.834;6.286;2023-03-21T06:16:28;12.60;99.90
15143;DHT22;7672;50.834;6.286;2023-03-21T06:18:56;12.60;99.90
15143;DHT22;7672;50.834;6.286;2023-03-21T06:21:23;12.60;99.90
15143;DHT22;7672;50.834;6.286;2023-03-21T06:23:52;12.60;99.90
15143;DHT22;7672;50.834;6.286;2023-03-21T06:26:20;12.50;99.90
15143;DHT22;7672;50.834;6.286;2023-03-21T06:28:49;12.50;99.90
15143;DHT22;7672;50.834;6.286;2023-03-21T06:31:18;12.50;99.90
15143;DHT22;7672;50.834;6.286;2023-03-21T06:33:49;12.50;99.90
15143;DHT22;7672;50.834;6.286;2023-03-21T06:36:17;12.50;99.90
15143;DHT22;7672;50.834;6.286;2023-03-21T06:38:45;12.40;99.90
15143;DHT22;7672;50.834;6.286;2023-03-21T06:41:14;12.40;99.90
15143;DHT22;7672;50.834;6.286;2023-03-21T06:43:43;12.40;99.90
15143;DHT22;7672;50.834;6.286;2023-03-21T06:46:11;12.40;99.90
15143;DHT22;7672;50.834;6.286;2023-03-21T06:48:38;12.30;99.90
15143;DHT22;7672;50.834;6.286;2023-03-21T06:51:11;12.30;99.90
15143;DHT22;7672;50.834;6.286;2023-03-21T06:53:39;12.40;99.90
15143;DHT22;7672;50.834;6.286;2023-03-21T06:56:11;12.40;99.90
15143;DHT22;7672;50.834;6.286;2023-03-21T06:58:39;12.40;99.90
15143;DHT22;7672;50.834;6.286;2023-03-21T07:01:07;12.40;99.90
15143;DHT22;7672;50.834;6.286;2023-03-21T07:03:34;12.40;99.90
15143;DHT22;7672;50.834;6.286;2023-03-21T07:06:09;12.50;99.90
15143;DHT22;7672;50.834;6.286;2023-03-21T07:08:38;12.40;99.90
15143;DHT22;7672;50.834;6.286;2023-03-21T07:11:07;12.40;99.90
15143;DHT22;7672;50.834;6.286;2023-03-21T07:13:34;12.40;99.90
15143;DHT22;7672;50.834;6.286;2023-03-21T07:16:02;12.50;99.90
15143;DHT22;7672;50.834;6.286;2023-03-21T07:18:29;12.50;99.90
15143;DHT22;7672;50.834;6.286;2023-03-21T07:20:56;12.50;99.90
15143;DHT22;7672;50.834;6.286;2023-03-21T07:23:24;12.50;99.90
15143;DHT22;7672;50.834;6.286;2023-03-21T07:25:52;12.50;99.90
15143;DHT22;7672;50.834;6.286;2023-03-21T07:28:21;12.50;99.90
15143;DHT22;7672;50.834;6.286;2023-03-21T07:30:57;12.50;99.90
15143;DHT22;7672;50.834;6.286;2023-03-21T07:33:27;12.50;99.90
15143;DHT22;7672;50.834;6.286;2023-03-21T07:35:54;12.60;99.90
15143;DHT22;7672;50.834;6.286;2023-03-21T07:38:23;12.50;99.90
15143;DHT22;7672;50.834;6.286;2023-03-21T07:40:51;12.50;99.90
15143;DHT22;7672;50.834;6.286;2023-03-21T07:43:18;12.60;99.90
15143;DHT22;7672;50.834;6.286;2023-03-21T07:45:45;12.60;99.90
15143;DHT22;7672;50.834;6.286;2023-03-21T07:48:13;12.60;99.90
15143;DHT22;7672;50.834;6.286;2023-03-21T07:50:43;12.60;99.90
15143;DHT22;7672;50.834;6.286;2023-03-21T07:53:09;12.70;99.90
15143;DHT22;7672;50.834;6.286;2023-03-21T07:55:36;12.70;99.90
15143;DHT22;7672;50.834;6.286;2023-03-21T07:58:04;12.70;99.90
15143;DHT22;7672;50.834;6.286;2023-03-21T08:00:31;12.70;99.90
15143;DHT22;7672;50.834;6.286;2023-03-21T08:02:58;12.80;99.90
15143;DHT22;7672;50.834;6.286;2023-03-21T08:05:32;12.80;99.90
15143;DHT22;7672;50.834;6.286;2023-03-21T08:08:02;12.80;99.90
15143;DHT22;7672;50.834;6.286;2023-03-21T08:10:29;12.90;99.90
15143;DHT22;7672;50.834;6.286;2023-03-21T08:12:57;13.00;99.90
15143;DHT22;7672;50.834;6.286;2023-03-21T08:15:24;13.00;99.90
15143;DHT22;7672;50.834;6.286;2023-03-21T08:17:50;13.10;99.90
15143;DHT22;7672;50.834;6.286;2023-03-21T08:20:19;13.10;99.90
15143;DHT22;7672;50.834;6.286;2023-03-21T08:22:49;13.10;99.90
15143;DHT22;7672;50.834;6.286;2023-03-21T08:25:18;13.20;99.90
15143;DHT22;7672;50.834;6.286;2023-03-21T08:27:48;13.20;99.90
15143;DHT22;7672;50.834;6.286;2023-03-21T08:30:19;13.30;99.90
15143;DHT22;7672;50.834;6.286;2023-03-21T08:32:48;13.30;99.90
15143;DHT22;7672;50.834;6.286;2023-03-21T08:35:17;13.40;99.90
15143;DHT22;7672;50.834;6.286;2023-03-21T08:37:45;13.40;99.90
15143;DHT22;7672;50.834;6.286;2023-03-21T08:40:14;13.50;99.90
15143;DHT22;7672;50.834;6.286;2023-03-21T08:42:44;13.60;99.90
15143;DHT22;7672;50.834;6.286;2023-03-21T08:45:13;13.70;99.90
15143;DHT22;7672;50.834;6.286;2023-03-21T08:47:41;13.70;99.90
15143;DHT22;7672;50.834;6.286;2023-03-21T08:50:12;14.00;99.90
15143;DHT22;7672;50.834;6.286;2023-03-21T08:52:43;13.80;99.90
15143;DHT22;7672;50.834;6.286;2023-03-21T08:55:10;13.90;99.90
15143;DHT22;7672;50.834;6.286;2023-03-21T08:57:38;13.90;99.90
15143;DHT22;7672;50.834;6.286;2023-03-21T09:00:06;14.00;99.90
15143;DHT22;7672;50.834;6.286;2023-03-21T09:02:40;14.00;99.90
15143;DHT22;7672;50.834;6.286;2023-03-21T09:05:08;14.00;99.90
15143;DHT22;7672;50.834;6.286;2023-03-21T09:07:38;14.10;99.90
15143;DHT22;7672;50.834;6.286;2023-03-21T09:10:08;14.20;99.90
15143;DHT22;7672;50.834;6.286;2023-03-21T09:12:53;14.20;99.90
15143;DHT22;7672;50.834;6.286;2023-03-21T09:15:25;14.20;99.90
15143;DHT22;7672;50.834;6.286;2023-03-21T09:17:55;14.30;99.90
15143;DHT22;7672;50.834;6.286;2023-03-21T09:20:25;14.30;99.90
15143;DHT22;7672;50.834;6.286;2023-03-21T09:22:57;14.40;99.90
15143;DHT22;7672;50.834;6.286;2023-03-21T09:25:24;14.40;99.90
15143;DHT22;7672;50.834;6.286;2023-03-21T09:27:56;14.40;99.90
15143;DHT22;7672;50.834;6.286;2023-03-21T09:30:23;14.50;99.90
15143;DHT22;7672;50.834;6.286;2023-03-21T09:32:52;14.50;99.90
15143;DHT22;7672;50.834;6.286;2023-03-21T09:35:21;14.60;99.90
15143;DHT22;7672;50.834;6.286;2023-03-21T09:37:48;14.60;99.90
15143;DHT22;7672;50.834;6.286;2023-03-21T09:42:55;14.70;99.90
15143;DHT22;7672;50.834;6.286;2023-03-21T09:45:31;14.80;99.90
15143;DHT22;7672;50.834;6.286;2023-03-21T09:48:14;15.10;99.90
15143;DHT22;7672;50.834;6.286;2023-03-21T09:50:51;14.90;99.90
15143;DHT22;7672;50.834;6.286;2023-03-21T09:53:24;15.00;99.90
15143;DHT22;7672;50.834;6.286;2023-03-21T09:55:59;15.10;99.90
15143;DHT22;7672;50.834;6.286;2023-03-21T09:58:29;15.20;99.90
15143;DHT22;7672;50.834;6.286;2023-03-21T10:01:21;15.20;99.90
15143;DHT22;7672;50.834;6.286;2023-03-21T10:03:56;15.30;99.90
15143;DHT22;7672;50.834;6.286;2023-03-21T10:06:27;15.50;99.90
15143;DHT22;7672;50.834;6.286;2023-03-21T10:09:01;15.60;99.90
15143;DHT22;7672;50.834;6.286;2023-03-21T10:11:44;15.70;99.90
15143;DHT22;7672;50.834;6.286;2023-03-21T10:14:28;15.80;99.90
15143;DHT22;7672;50.834;6.286;2023-03-21T10:19:50;16.10;99.90
15143;DHT22;7672;50.834;6.286;2023-03-21T10:22:24;16.10;99.90
15143;DHT22;7672;50.834;6.286;2023-03-21T10:24:51;16.30;99.90
15143;DHT22;7672;50.834;6.286;2023-03-21T10:27:17;16.40;99.90
15143;DHT22;7672;50.834;6.286;2023-03-21T10:29:44;16.60;99.90
15143;DHT22;7672;50.834;6.286;2023-03-21T10:32:14;16.50;99.90
15143;DHT22;7672;50.834;6.286;2023-03-21T10:34:54;16.60;99.90
15143;DHT22;7672;50.834;6.286;2023-03-21T10:37:27;16.70;99.90
15143;DHT22;7672;50.834;6.286;2023-03-21T10:39:54;16.70;99.90
15143;DHT22;7672;50.834;6.286;2023-03-21T10:42:24;16.80;99.90
15143;DHT22;7672;50.834;6.286;2023-03-21T10:44:56;16.90;99.90
15143;DHT22;7672;50.834;6.286;2023-03-21T10:47:24;16.90;99.90
15143;DHT22;7672;50.834;6.286;2023-03-21T10:50:10;17.00;99.90
15143;DHT22;7672;50.834;6.286;2023-03-21T10:52:55;17.10;99.90
15143;DHT22;7672;50.834;6.286;2023-03-21T10:55:29;17.10;99.90
15143;DHT22;7672;50.834;6.286;2023-03-21T10:58:02;17.00;99.90
15143;DHT22;7672;50.834;6.286;2023-03-21T11:00:36;17.10;99.90
15143;DHT22;7672;50.834;6.286;2023-03-21T11:03:06;17.00;99.90
15143;DHT22;7672;50.834;6.286;2023-03-21T11:05:47;17.00;99.90
15143;DHT22;7672;50.834;6.286;2023-03-21T11:08:18;16.90;99.90
15143;DHT22;7672;50.834;6.286;2023-03-21T11:11:06;16.90;99.90
15143;DHT22;7672;50.834;6.286;2023-03-21T11:13:40;16.80;99.90
15143;DHT22;7672;50.834;6.286;2023-03-21T11:16:10;16.80;99.90
15143;DHT22;7672;50.834;6.286;2023-03-21T11:18:49;16.80;99.90
15143;DHT22;7672;50.834;6.286;2023-03-21T11:21:17;16.70;99.90
15143;DHT22;7672;50.834;6.286;2023-03-21T11:23:46;16.70;99.90
15143;DHT22;7672;50.834;6.286;2023-03-21T11:26:21;16.70;99.90
15143;DHT22;7672;50.834;6.286;2023-03-21T11:28:53;16.60;99.90
15143;DHT22;7672;50.834;6.286;2023-03-21T11:31:21;16.50;99.90
15143;DHT22;7672;50.834;6.286;2023-03-21T11:33:54;16.40;99.90
15143;DHT22;7672;50.834;6.286;2023-03-21T11:36:32;16.40;99.90
15143;DHT22;7672;50.834;6.286;2023-03-21T11:41:40;16.30;99.90
15143;DHT22;7672;50.834;6.286;2023-03-21T11:44:25;16.40;99.90
15143;DHT22;7672;50.834;6.286;2023-03-21T11:46:54;16.40;99.90
15143;DHT22;7672;50.834;6.286;2023-03-21T11:49:22;16.40;99.90
15143;DHT22;7672;50.834;6.286;2023-03-21T11:54:36;16.40;99.90
15143;DHT22;7672;50.834;6.286;2023-03-21T12:00:14;16.40;99.90
15143;DHT22;7672;50.834;6.286;2023-03-21T12:03:11;16.40;99.90
15143;DHT22;7672;50.834;6.286;2023-03-21T12:09:40;16.50;99.90
15143;DHT22;7672;50.834;6.286;2023-03-21T12:13:01;16.60;99.90
15143;DHT22;7672;50.834;6.286;2023-03-21T12:19:33;16.70;99.90
15143;DHT22;7672;50.834;6.286;2023-03-21T12:25:41;16.90;99.90
15143;DHT22;7672;50.834;6.286;2023-03-21T12:39:31;17.10;99.90
15143;DHT22;7672;50.834;6.286;2023-03-21T12:45:04;17.20;99.90
15143;DHT22;7672;50.834;6.286;2023-03-21T12:47:44;17.20;99.90
15143;DHT22;7672;50.834;6.286;2023-03-21T12:50:23;17.30;99.90
15143;DHT22;7672;50.834;6.286;2023-03-21T12:53:06;17.30;99.90
15143;DHT22;7672;50.834;6.286;2023-03-21T12:55:58;17.40;99.90
15143;DHT22;7672;50.834;6.286;2023-03-21T12:58:30;17.50;99.90
15143;DHT22;7672;50.834;6.286;2023-03-21T13:01:09;17.70;99.90
15143;DHT22;7672;50.834;6.286;2023-03-21T13:03:43;17.70;99.90
15143;DHT22;7672;50.834;6.286;2023-03-21T13:06:17;17.80;99.90
15143;DHT22;7672;50.834;6.286;2023-03-21T13:09:01;17.90;99.90
15143;DHT22;7672;50.834;6.286;2023-03-21T13:11:39;18.00;99.90
15143;DHT22;7672;50.834;6.286;2023-03-21T13:14:46;18.20;99.90
15143;DHT22;7672;50.834;6.286;2023-03-21T13:24:14;18.50;99.90
15143;DHT22;7672;50.834;6.286;2023-03-21T13:29:33;18.60;99.90
15143;DHT22;7672;50.834;6.286;2023-03-21T13:35:11;18.70;99.90
15143;DHT22;7672;50.834;6.286;2023-03-21T13:37:53;18.70;99.90
15143;DHT22;7672;50.834;6.286;2023-03-21T13:40:46;18.80;99.90
15143;DHT22;7672;50.834;6.286;2023-03-21T13:43:53;18.80;99.90
15143;DHT22;7672;50.834;6.286;2023-03-21T13:47:05;18.80;99.90
15143;DHT22;7672;50.834;6.286;2023-03-21T13:53:10;18.90;99.90
15143;DHT22;7672;50.834;6.286;2023-03-21T13:55:44;18.80;99.90
15143;DHT22;7672;50.834;6.286;2023-03-21T13:58:38;18.80;99.90
15143;DHT22;7672;50.834;6.286;2023-03-21T14:01:31;18.80;99.90
15143;DHT22;7672;50.834;6.286;2023-03-21T14:04:26;18.90;99.90
15143;DHT22;7672;50.834;6.286;2023-03-21T14:07:24;18.90;99.90
15143;DHT22;7672;50.834;6.286;2023-03-21T14:10:00;18.90;99.90
15143;DHT22;7672;50.834;6.286;2023-03-21T14:12:40;18.90;99.90
15143;DHT22;7672;50.834;6.286;2023-03-21T14:15:18;18.90;99.90
15143;DHT22;7672;50.834;6.286;2023-03-21T14:18:01;18.90;99.90
15143;DHT22;7672;50.834;6.286;2023-03-21T14:20:54;18.90;99.90
15143;DHT22;7672;50.834;6.286;2023-03-21T14:23:24;18.90;99.90
15143;DHT22;7672;50.834;6.286;2023-03-21T14:25:52;19.00;99.90
15143;DHT22;7672;50.834;6.286;2023-03-21T14:28:29;18.90;99.90
15143;DHT22;7672;50.834;6.286;2023-03-21T14:31:00;19.00;99.90
15143;DHT22;7672;50.834;6.286;2023-03-21T14:33:34;19.00;99.90
15143;DHT22;7672;50.834;6.286;2023-03-21T14:36:09;19.10;99.90
15143;DHT22;7672;50.834;6.286;2023-03-21T14:38:41;19.10;99.90
15143;DHT22;7672;50.834;6.286;2023-03-21T14:41:26;19.10;99.90
15143;DHT22;7672;50.834;6.286;2023-03-21T14:44:17;19.30;99.90
15143;DHT22;7672;50.834;6.286;2023-03-21T14:49:42;19.40;99.90
15143;DHT22;7672;50.834;6.286;2023-03-21T14:52:17;19.40;99.90
15143;DHT22;7672;50.834;6.286;2023-03-21T14:55:13;19.50;99.90
15143;DHT22;7672;50.834;6.286;2023-03-21T14:57:42;19.50;99.90
15143;DHT22;7672;50.834;6.286;2023-03-21T15:00:25;19.50;99.90
15143;DHT22;7672;50.834;6.286;2023-03-21T15:02:57;19.60;99.90
15143;DHT22;7672;50.834;6.286;2023-03-21T15:05:36;19.60;99.90
15143;DHT22;7672;50.834;6.286;2023-03-21T15:10:40;19.60;99.90
15143;DHT22;7672;50.834;6.286;2023-03-21T15:13:18;19.70;99.90
15143;DHT22;7672;50.834;6.286;2023-03-21T15:15:48;19.60;99.90
15143;DHT22;7672;50.834;6.286;2023-03-21T15:18:27;19.70;99.90
15143;DHT22;7672;50.834;6.286;2023-03-21T15:21:08;19.60;99.90
15143;DHT22;7672;50.834;6.286;2023-03-21T15:24:21;19.60;99.90
15143;DHT22;7672;50.834;6.286;2023-03-21T15:27:07;19.60;99.90
15143;DHT22;7672;50.834;6.286;2023-03-21T15:29:40;19.60;99.90
15143;DHT22;7672;50.834;6.286;2023-03-21T15:32:18;19.60;99.90
15143;DHT22;7672;50.834;6.286;2023-03-21T15:34:50;19.50;99.90
15143;DHT22;7672;50.834;6.286;2023-03-21T15:37:34;19.50;99.90
15143;DHT22;7672;50.834;6.286;2023-03-21T15:40:33;19.50;99.90
15143;DHT22;7672;50.834;6.286;2023-03-21T15:43:05;19.50;99.90
15143;DHT22;7672;50.834;6.286;2023-03-21T15:45:53;19.50;99.90
15143;DHT22;7672;50.834;6.286;2023-03-21T15:48:26;19.50;99.90
15143;DHT22;7672;50.834;6.286;2023-03-21T15:50:57;19.40;99.90
15143;DHT22;7672;50.834;6.286;2023-03-21T15:53:35;19.40;99.90
15143;DHT22;7672;50.834;6.286;2023-03-21T15:56:04;19.40;99.90
15143;DHT22;7672;50.834;6.286;2023-03-21T15:58:44;19.30;99.90
15143;DHT22;7672;50.834;6.286;2023-03-21T16:01:21;19.30;99.90
15143;DHT22;7672;50.834;6.286;2023-03-21T16:04:01;19.20;99.90
15143;DHT22;7672;50.834;6.286;2023-03-21T16:06:34;19.10;99.90
15143;DHT22;7672;50.834;6.286;2023-03-21T16:11:47;19.00;99.90
15143;DHT22;7672;50.834;6.286;2023-03-21T16:14:17;18.90;99.90
15143;DHT22;7672;50.834;6.286;2023-03-21T16:16:47;18.80;99.90
15143;DHT22;7672;50.834;6.286;2023-03-21T16:19:16;18.80;99.90
15143;DHT22;7672;50.834;6.286;2023-03-21T16:21:44;18.70;99.90
15143;DHT22;7672;50.834;6.286;2023-03-21T16:24:12;18.70;99.90
15143;DHT22;7672;50.834;6.286;2023-03-21T16:26:48;18.60;99.90
15143;DHT22;7672;50.834;6.286;2023-03-21T16:29:19;18.50;99.90
15143;DHT22;7672;50.834;6.286;2023-03-21T16:31:49;18.60;99.90
15143;DHT22;7672;50.834;6.286;2023-03-21T16:34:16;18.50;99.90
15143;DHT22;7672;50.834;6.286;2023-03-21T16:36:45;18.50;99.90
15143;DHT22;7672;50.834;6.286;2023-03-21T16:39:19;18.50;99.90
15143;DHT22;7672;50.834;6.286;2023-03-21T16:41:48;18.40;99.90
15143;DHT22;7672;50.834;6.286;2023-03-21T16:44:17;18.40;99.90
15143;DHT22;7672;50.834;6.286;2023-03-21T16:46:46;18.40;99.90
15143;DHT22;7672;50.834;6.286;2023-03-21T16:49:22;18.30;99.90
15143;DHT22;7672;50.834;6.286;2023-03-21T16:51:54;18.30;99.90
15143;DHT22;7672;50.834;6.286;2023-03-21T16:54:23;18.30;99.90
15143;DHT22;7672;50.834;6.286;2023-03-21T16:56:53;18.30;99.90
15143;DHT22;7672;50.834;6.286;2023-03-21T16:59:21;18.20;99.90
15143;DHT22;7672;50.834;6.286;2023-03-21T17:01:49;18.20;99.90
15143;DHT22;7672;50.834;6.286;2023-03-21T17:04:17;18.20;99.90
15143;DHT22;7672;50.834;6.286;2023-03-21T17:06:49;18.10;99.90
15143;DHT22;7672;50.834;6.286;2023-03-21T17:09:20;18.10;99.90
15143;DHT22;7672;50.834;6.286;2023-03-21T17:11:48;18.00;99.90
15143;DHT22;7672;50.834;6.286;2023-03-21T17:14:16;18.00;99.90
15143;DHT22;7672;50.834;6.286;2023-03-21T17:16:44;18.00;99.90
15143;DHT22;7672;50.834;6.286;2023-03-21T17:19:14;17.90;99.90
15143;DHT22;7672;50.834;6.286;2023-03-21T17:21:46;17.90;99.90
15143;DHT22;7672;50.834;6.286;2023-03-21T17:24:13;17.80;99.90
15143;DHT22;7672;50.834;6.286;2023-03-21T17:26:41;17.80;99.90
15143;DHT22;7672;50.834;6.286;2023-03-21T17:29:13;17.80;99.90
15143;DHT22;7672;50.834;6.286;2023-03-21T17:31:41;17.70;99.90
15143;DHT22;7672;50.834;6.286;2023-03-21T17:34:09;17.70;99.90
15143;DHT22;7672;50.834;6.286;2023-03-21T17:36:39;17.70;99.90
15143;DHT22;7672;50.834;6.286;2023-03-21T17:39:11;17.60;99.90
15143;DHT22;7672;50.834;6.286;2023-03-21T17:41:42;17.50;99.90
15143;DHT22;7672;50.834;6.286;2023-03-21T17:44:08;17.50;99.90
15143;DHT22;7672;50.834;6.286;2023-03-21T17:46:36;17.50;99.90
15143;DHT22;7672;50.834;6.286;2023-03-21T17:49:04;17.40;99.90